sensor_id;sensor_type;location;lat;lon;timestamp;temperature;humidity
9167;DHT22;4618;48.818;9.088;2023-11-21T00:02:13;7.70;1.00
9167;DHT22;4618;48.818;9.088;2023-11-21T00:04:39;7.80;1.00
9167;DHT22;4618;48.818;9.088;2023-11-21T00:07:04;7.80;1.00
9167;DHT22;4618;48.818;9.088;2023-11-21T00:09:31;7.80;1.00
9167;DHT22;4618;48.818;9.088;2023-11-21T00:11:57;7.90;1.00
9167;DHT22;4618;48.818;9.088;2023-11-21T00:14:24;7.90;1.00
9167;DHT22;4618;48.818;9.088;2023-11-21T00:16:50;7.90;1.00
9167;DHT22;4618;48.818;9.088;2023-11-21T00:19:16;7.90;1.00
9167;DHT22;4618;48.818;9.088;2023-11-21T00:21:42;7.90;1.00
9167;DHT22;4618;48.818;9.088;2023-11-21T00:24:09;7.90;1.00
9167;DHT22;4618;48.818;9.088;2023-11-21T00:26:35;7.90;75.90
9167;DHT22;4618;48.818;9.088;2023-11-21T00:29:03;7.80;99.90
9167;DHT22;4618;48.818;9.088;2023-11-21T00:31:28;7.90;99.90
9167;DHT22;4618;48.818;9.088;2023-11-21T00:33:56;7.90;98.30
9167;DHT22;4618;48.818;9.088;2023-11-21T00:36:21;8.10;1.00
9167;DHT22;4618;48.818;9.088;2023-11-21T00:38:47;8.10;1.00
9167;DHT22;4618;48.818;9.088;2023-11-21T00:41:13;8.20;1.00
9167;DHT22;4618;48.818;9.088;2023-11-21T00:43:39;8.20;1.00
9167;DHT22;4618;48.818;9.088;2023-11-21T00:46:05;8.20;1.00
9167;DHT22;4618;48.818;9.088;2023-11-21T00:48:33;8.20;1.00
9167;DHT22;4618;48.818;9.088;2023-11-21T00:50:58;8.20;1.00
9167;DHT22;4618;48.818;9.088;2023-11-21T00:53:24;8.20;1.00
9167;DHT22;4618;48.818;9.088;2023-11-21T00:55:50;8.20;2.70
9167;DHT22;4618;48.818;9.088;2023-11-21T00:58:17;8.10;99.90
9167;DHT22;4618;48.818;9.088;2023-11-21T01:00:43;8.10;99.90
9167;DHT22;4618;48.818;9.088;2023-11-21T01:03:09;8.10;99.90
9167;DHT22;4618;48.818;9.088;2023-11-21T01:05:35;8.10;99.90
9167;DHT22;4618;48.818;9.088;2023-11-21T01:08:00;8.20;99.90
9167;DHT22;4618;48.818;9.088;2023-11-21T01:10:26;8.10;99.90
9167;DHT22;4618;48.818;9.088;2023-11-21T01:12:51;8.10;99.90
9167;DHT22;4618;48.818;9.088;2023-11-21T01:15:17;8.10;99.90
9167;DHT22;4618;48.818;9.088;2023-11-21T01:17:43;8.10;99.90
9167;DHT22;4618;48.818;9.088;2023-11-21T01:20:09;8.10;1.00
9167;DHT22;4618;48.818;9.088;2023-11-21T01:22:38;8.00;1.00
9167;DHT22;4618;48.818;9.088;2023-11-21T01:25:04;7.90;1.00
9167;DHT22;4618;48.818;9.088;2023-11-21T01:27:33;8.00;1.00
9167;DHT22;4618;48.818;9.088;2023-11-21T01:29:59;7.90;1.00
9167;DHT22;4618;48.818;9.088;2023-11-21T01:32:25;7.90;1.00
9167;DHT22;4618;48.818;9.088;2023-11-21T01:34:51;8.00;1.00
9167;DHT22;4618;48.818;9.088;2023-11-21T01:37:16;8.00;1.00
9167;DHT22;4618;48.818;9.088;2023-11-21T01:39:43;8.00;1.00
9167;DHT22;4618;48.818;9.088;2023-11-21T01:42:09;8.00;1.00
9167;DHT22;4618;48.818;9.088;2023-11-21T01:44:35;8.00;1.00
9167;DHT22;4618;48.818;9.088;2023-11-21T01:47:01;8.10;1.00
9167;DHT22;4618;48.818;9.088;2023-11-21T01:49:34;8.00;99.90
9167;DHT22;4618;48.818;9.088;2023-11-21T01:52:00;8.00;99.90
9167;DHT22;4618;48.818;9.088;2023-11-21T01:54:27;7.90;1.00
9167;DHT22;4618;48.818;9.088;2023-11-21T01:56:53;8.00;99.90
9167;DHT22;4618;48.818;9.088;2023-11-21T01:59:21;8.10;99.90
9167;DHT22;4618;48.818;9.088;2023-11-21T02:01:47;8.00;99.90
9167;DHT22;4618;48.818;9.088;2023-11-21T02:04:13;8.00;1.00
9167;DHT22;4618;48.818;9.088;2023-11-21T02:06:39;8.00;1.00
9167;DHT22;4618;48.818;9.088;2023-11-21T02:09:04;8.00;1.00
9167;DHT22;4618;48.818;9.088;2023-11-21T02:11:30;8.00;1.00
9167;DHT22;4618;48.818;9.088;2023-11-21T02:13:58;8.00;1.00
9167;DHT22;4618;48.818;9.088;2023-11-21T02:16:24;8.00;1.00
9167;DHT22;4618;48.818;9.088;2023-11-21T02:18:51;8.00;1.00
9167;DHT22;4618;48.818;9.088;2023-11-21T02:21:17;8.20;99.90
9167;DHT22;4618;48.818;9.088;2023-11-21T02:23:44;8.20;99.90
9167;DHT22;4618;48.818;9.088;2023-11-21T02:26:12;8.20;99.90
9167;DHT22;4618;48.818;9.088;2023-11-21T02:28:37;8.20;99.90
9167;DHT22;4618;48.818;9.088;2023-11-21T02:31:04;8.20;99.90
9167;DHT22;4618;48.818;9.088;2023-11-21T02:33:30;8.20;99.90
9167;DHT22;4618;48.818;9.088;2023-11-21T02:36:02;8.10;99.90
9167;DHT22;4618;48.818;9.088;2023-11-21T02:38:28;8.00;99.90
9167;DHT22;4618;48.818;9.088;2023-11-21T02:40:53;8.10;99.90
9167;DHT22;4618;48.818;9.088;2023-11-21T02:43:19;8.00;99.90
9167;DHT22;4618;48.818;9.088;2023-11-21T02:45:45;8.00;99.90
9167;DHT22;4618;48.818;9.088;2023-11-21T02:48:10;8.10;99.90
9167;DHT22;4618;48.818;9.088;2023-11-21T02:50:36;8.10;99.90
9167;DHT22;4618;48.818;9.088;2023-11-21T02:53:03;8.10;99.90
9167;DHT22;4618;48.818;9.088;2023-11-21T02:55:31;8.10;99.90
9167;DHT22;4618;48.818;9.088;2023-11-21T02:58:00;8.00;99.90
9167;DHT22;4618;48.818;9.088;2023-11-21T03:00:25;8.00;99.90
9167;DHT22;4618;48.818;9.088;2023-11-21T03:02:51;7.90;99.90
9167;DHT22;4618;48.818;9.088;2023-11-21T03:05:16;7.90;99.90
9167;DHT22;4618;48.818;9.088;2023-11-21T03:07:42;7.90;1.00
9167;DHT22;4618;48.818;9.088;2023-11-21T03:10:08;7.80;1.00
9167;DHT22;4618;48.818;9.088;2023-11-21T03:12:34;7.80;1.00
9167;DHT22;4618;48.818;9.088;2023-11-21T03:15:00;7.80;1.00
9167;DHT22;4618;48.818;9.088;2023-11-21T03:17:27;7.70;1.00
9167;DHT22;4618;48.818;9.088;2023-11-21T03:19:54;7.70;1.00
9167;DHT22;4618;48.818;9.088;2023-11-21T03:22:20;7.70;1.00
9167;DHT22;4618;48.818;9.088;2023-11-21T03:24:45;7.70;1.00
9167;DHT22;4618;48.818;9.088;2023-11-21T03:27:11;7.70;1.00
9167;DHT22;4618;48.818;9.088;2023-11-21T03:29:37;7.70;1.00
9167;DHT22;4618;48.818;9.088;2023-11-21T03:32:03;7.70;1.00
9167;DHT22;4618;48.818;9.088;2023-11-21T03:34:29;7.80;1.00
9167;DHT22;4618;48.818;9.088;2023-11-21T03:36:55;7.70;1.00
9167;DHT22;4618;48.818;9.088;2023-11-21T03:39:21;7.70;1.00
9167;DHT22;4618;48.818;9.088;2023-11-21T03:41:47;7.60;1.00
9167;DHT22;4618;48.818;9.088;2023-11-21T03:44:13;7.70;1.00
9167;DHT22;4618;48.818;9.088;2023-11-21T03:46:39;7.70;1.00
9167;DHT22;4618;48.818;9.088;2023-11-21T03:49:05;7.80;1.00
9167;DHT22;4618;48.818;9.088;2023-11-21T03:51:30;7.90;1.00
9167;DHT22;4618;48.818;9.088;2023-11-21T03:53:56;7.90;1.00
9167;DHT22;4618;48.818;9.088;2023-11-21T03:56:22;7.80;1.00
9167;DHT22;4618;48.818;9.088;2023-11-21T03:58:48;7.90;1.00
9167;DHT22;4618;48.818;9.088;2023-11-21T04:01:21;7.80;1.00
9167;DHT22;4618;48.818;9.088;2023-11-21T04:03:47;7.90;1.00
9167;DHT22;4618;48.818;9.088;2023-11-21T04:06:13;7.90;1.00
9167;DHT22;4618;48.818;9.088;2023-11-21T04:08:38;7.80;1.00
9167;DHT22;4618;48.818;9.088;2023-11-21T04:11:04;7.80;1.00
9167;DHT22;4618;48.818;9.088;2023-11-21T04:13:30;7.80;1.00
9167;DHT22;4618;48.818;9.088;2023-11-21T04:15:56;7.70;1.00
9167;DHT22;4618;48.818;9.088;2023-11-21T04:18:21;7.70;99.90
9167;DHT22;4618;48.818;9.088;2023-11-21T04:20:48;7.70;99.90
9167;DHT22;4618;48.818;9.088;2023-11-21T04:23:14;7.60;99.90
9167;DHT22;4618;48.818;9.088;2023-11-21T04:25:40;7.60;99.90
9167;DHT22;4618;48.818;9.088;2023-11-21T04:28:06;7.50;99.90
9167;DHT22;4618;48.818;9.088;2023-11-21T04:30:31;7.50;99.90
9167;DHT22;4618;48.818;9.088;2023-11-21T04:32:58;7.40;99.90
9167;DHT22;4618;48.818;9.088;2023-11-21T04:35:23;7.40;99.90
9167;DHT22;4618;48.818;9.088;2023-11-21T04:37:49;7.40;99.90
9167;DHT22;4618;48.818;9.088;2023-11-21T04:40:16;7.40;99.90
9167;DHT22;4618;48.818;9.088;2023-11-21T04:42:42;7.50;99.90
9167;DHT22;4618;48.818;9.088;2023-11-21T04:45:08;7.40;99.90
9167;DHT22;4618;48.818;9.088;2023-11-21T04:47:35;7.30;99.90
9167;DHT22;4618;48.818;9.088;2023-11-21T04:50:01;7.40;99.90
9167;DHT22;4618;48.818;9.088;2023-11-21T04:52:27;7.20;99.90
9167;DHT22;4618;48.818;9.088;2023-11-21T04:54:52;7.20;99.90
9167;DHT22;4618;48.818;9.088;2023-11-21T04:57:20;7.10;99.90
9167;DHT22;4618;48.818;9.088;2023-11-21T04:59:45;7.00;99.90
9167;DHT22;4618;48.818;9.088;2023-11-21T05:02:11;7.00;99.90
9167;DHT22;4618;48.818;9.088;2023-11-21T05:04:37;7.10;99.90
9167;DHT22;4618;48.818;9.088;2023-11-21T05:07:03;7.20;99.90
9167;DHT22;4618;48.818;9.088;2023-11-21T05:09:28;7.10;99.90
9167;DHT22;4618;48.818;9.088;2023-11-21T05:11:57;7.20;99.90
9167;DHT22;4618;48.818;9.088;2023-11-21T05:14:23;7.10;99.90
9167;DHT22;4618;48.818;9.088;2023-11-21T05:16:48;7.10;99.90
9167;DHT22;4618;48.818;9.088;2023-11-21T05:19:16;7.00;99.90
9167;DHT22;4618;48.818;9.088;2023-11-21T05:21:42;7.00;99.90
9167;DHT22;4618;48.818;9.088;2023-11-21T05:24:07;7.10;99.90
9167;DHT22;4618;48.818;9.088;2023-11-21T05:26:33;7.10;99.90
9167;DHT22;4618;48.818;9.088;2023-11-21T05:28:58;7.10;99.90
9167;DHT22;4618;48.818;9.088;2023-11-21T05:31:24;7.20;99.90
9167;DHT22;4618;48.818;9.088;2023-11-21T05:33:50;7.20;99.90
9167;DHT22;4618;48.818;9.088;2023-11-21T05:36:15;7.20;99.90
9167;DHT22;4618;48.818;9.088;2023-11-21T05:38:41;7.20;99.90
9167;DHT22;4618;48.818;9.088;2023-11-21T05:41:07;7.20;99.90
9167;DHT22;4618;48.818;9.088;2023-11-21T05:43:33;7.10;99.90
9167;DHT22;4618;48.818;9.088;2023-11-21T05:46:01;7.20;99.90
9167;DHT22;4618;48.818;9.088;2023-11-21T05:48:26;7.30;99.90
9167;DHT22;4618;48.818;9.088;2023-11-21T05:50:52;7.20;99.90
9167;DHT22;4618;48.818;9.088;2023-11-21T05:53:18;7.20;99.90
9167;DHT22;4618;48.818;9.088;2023-11-21T05:55:43;7.20;99.90
9167;DHT22;4618;48.818;9.088;2023-11-21T05:58:09;7.20;99.90
9167;DHT22;4618;48.818;9.088;2023-11-21T06:00:35;7.20;99.90
9167;DHT22;4618;48.818;9.088;2023-11-21T06:03:01;7.20;99.90
9167;DHT22;4618;48.818;9.088;2023-11-21T06:05:27;7.00;99.90
9167;DHT22;4618;48.818;9.088;2023-11-21T06:07:53;7.00;99.90
9167;DHT22;4618;48.818;9.088;2023-11-21T06:10:20;7.20;99.90
9167;DHT22;4618;48.818;9.088;2023-11-21T06:12:46;7.20;99.90
9167;DHT22;4618;48.818;9.088;2023-11-21T06:15:12;7.30;99.90
9167;DHT22;4618;48.818;9.088;2023-11-21T06:17:42;7.30;99.90
9167;DHT22;4618;48.818;9.088;2023-11-21T06:20:09;7.40;99.90
9167;DHT22;4618;48.818;9.088;2023-11-21T06:22:40;7.50;99.90
9167;DHT22;4618;48.818;9.088;2023-11-21T06:25:06;7.50;99.90
9167;DHT22;4618;48.818;9.088;2023-11-21T06:27:39;7.50;99.90
9167;DHT22;4618;48.818;9.088;2023-11-21T06:30:05;7.50;99.90
9167;DHT22;4618;48.818;9.088;2023-11-21T06:32:32;7.60;99.90
9167;DHT22;4618;48.818;9.088;2023-11-21T06:34:58;7.50;35.70
9167;DHT22;4618;48.818;9.088;2023-11-21T06:37:27;7.50;58.50
9167;DHT22;4618;48.818;9.088;2023-11-21T06:39:53;7.50;99.90
9167;DHT22;4618;48.818;9.088;2023-11-21T06:42:19;7.50;99.90
9167;DHT22;4618;48.818;9.088;2023-11-21T06:44:45;7.50;99.90
9167;DHT22;4618;48.818;9.088;2023-11-21T06:47:11;7.50;99.90
9167;DHT22;4618;48.818;9.088;2023-11-21T06:49:37;7.40;99.90
9167;DHT22;4618;48.818;9.088;2023-11-21T06:52:04;7.40;99.90
9167;DHT22;4618;48.818;9.088;2023-11-21T06:54:31;7.40;99.90
9167;DHT22;4618;48.818;9.088;2023-11-21T06:56:57;7.40;99.90
9167;DHT22;4618;48.818;9.088;2023-11-21T06:59:23;7.40;99.90
9167;DHT22;4618;48.818;9.088;2023-11-21T07:01:49;7.40;99.90
9167;DHT22;4618;48.818;9.088;2023-11-21T07:04:15;7.40;99.90
9167;DHT22;4618;48.818;9.088;2023-11-21T07:06:40;7.40;99.90
9167;DHT22;4618;48.818;9.088;2023-11-21T07:09:06;7.40;99.90
9167;DHT22;4618;48.818;9.088;2023-11-21T07:11:34;7.30;99.90
9167;DHT22;4618;48.818;9.088;2023-11-21T07:14:00;7.40;99.90
9167;DHT22;4618;48.818;9.088;2023-11-21T07:16:28;7.40;99.90
9167;DHT22;4618;48.818;9.088;2023-11-21T07:18:55;7.40;99.90
9167;DHT22;4618;48.818;9.088;2023-11-21T07:21:21;7.40;99.90
9167;DHT22;4618;48.818;9.088;2023-11-21T07:23:47;7.40;99.90
9167;DHT22;4618;48.818;9.088;2023-11-21T07:26:12;7.40;99.90
9167;DHT22;4618;48.818;9.088;2023-11-21T07:28:38;7.50;99.90
9167;DHT22;4618;48.818;9.088;2023-11-21T07:31:03;7.60;99.90
9167;DHT22;4618;48.818;9.088;2023-11-21T07:33:29;7.70;99.90
9167;DHT22;4618;48.818;9.088;2023-11-21T07:35:55;7.70;99.90
9167;DHT22;4618;48.818;9.088;2023-11-21T07:38:20;7.80;99.90
9167;DHT22;4618;48.818;9.088;2023-11-21T07:40:46;7.90;1.00
9167;DHT22;4618;48.818;9.088;2023-11-21T07:43:11;8.10;1.00
9167;DHT22;4618;48.818;9.088;2023-11-21T07:45:37;8.20;1.00
9167;DHT22;4618;48.818;9.088;2023-11-21T07:48:03;8.20;99.90
9167;DHT22;4618;48.818;9.088;2023-11-21T07:50:30;8.30;99.90
9167;DHT22;4618;48.818;9.088;2023-11-21T07:52:57;8.40;99.90
9167;DHT22;4618;48.818;9.088;2023-11-21T07:55:23;8.60;99.90
9167;DHT22;4618;48.818;9.088;2023-11-21T07:57:50;8.60;99.90
9167;DHT22;4618;48.818;9.088;2023-11-21T08:00:16;8.70;99.90
9167;DHT22;4618;48.818;9.088;2023-11-21T08:02:41;8.70;99.90
9167;DHT22;4618;48.818;9.088;2023-11-21T08:05:08;8.80;1.00
9167;DHT22;4618;48.818;9.088;2023-11-21T08:07:34;8.90;1.00
9167;DHT22;4618;48.818;9.088;2023-11-21T08:10:00;9.00;1.00
9167;DHT22;4618;48.818;9.088;2023-11-21T08:12:25;9.00;1.00
9167;DHT22;4618;48.818;9.088;2023-11-21T08:14:53;9.10;1.00
9167;DHT22;4618;48.818;9.088;2023-11-21T08:17:18;9.20;1.00
9167;DHT22;4618;48.818;9.088;2023-11-21T08:19:45;9.20;1.00
9167;DHT22;4618;48.818;9.088;2023-11-21T08:22:17;9.10;1.00
9167;DHT22;4618;48.818;9.088;2023-11-21T08:24:44;9.00;1.00
9167;DHT22;4618;48.818;9.088;2023-11-21T08:27:09;9.00;1.00
9167;DHT22;4618;48.818;9.088;2023-11-21T08:29:35;9.00;1.00
9167;DHT22;4618;48.818;9.088;2023-11-21T08:32:02;8.90;99.90
9167;DHT22;4618;48.818;9.088;2023-11-21T08:34:28;9.00;99.90
9167;DHT22;4618;48.818;9.088;2023-11-21T08:36:54;9.00;99.90
9167;DHT22;4618;48.818;9.088;2023-11-21T08:39:21;9.10;91.80
9167;DHT22;4618;48.818;9.088;2023-11-21T08:41:49;9.10;13.40
9167;DHT22;4618;48.818;9.088;2023-11-21T08:44:16;9.20;99.90
9167;DHT22;4618;48.818;9.088;2023-11-21T08:46:46;9.10;99.90
9167;DHT22;4618;48.818;9.088;2023-11-21T08:49:12;9.10;99.90
9167;DHT22;4618;48.818;9.088;2023-11-21T08:51:38;9.00;99.90
9167;DHT22;4618;48.818;9.088;2023-11-21T08:54:04;9.00;99.90
9167;DHT22;4618;48.818;9.088;2023-11-21T08:56:33;8.80;1.00
9167;DHT22;4618;48.818;9.088;2023-11-21T08:58:59;8.80;1.00
9167;DHT22;4618;48.818;9.088;2023-11-21T09:01:27;8.80;1.00
9167;DHT22;4618;48.818;9.088;2023-11-21T09:03:53;8.80;1.00
9167;DHT22;4618;48.818;9.088;2023-11-21T09:06:19;8.80;1.00
9167;DHT22;4618;48.818;9.088;2023-11-21T09:08:45;8.90;1.00
9167;DHT22;4618;48.818;9.088;2023-11-21T09:11:11;8.90;1.00
9167;DHT22;4618;48.818;9.088;2023-11-21T09:13:36;8.90;1.00
9167;DHT22;4618;48.818;9.088;2023-11-21T09:16:02;8.80;1.00
9167;DHT22;4618;48.818;9.088;2023-11-21T09:18:28;8.80;1.00
9167;DHT22;4618;48.818;9.088;2023-11-21T09:20:53;8.80;53.70
9167;DHT22;4618;48.818;9.088;2023-11-21T09:23:19;8.80;77.10
9167;DHT22;4618;48.818;9.088;2023-11-21T09:25:44;8.70;14.40
9167;DHT22;4618;48.818;9.088;2023-11-21T09:28:12;8.80;99.90
9167;DHT22;4618;48.818;9.088;2023-11-21T09:30:38;8.80;91.80
9167;DHT22;4618;48.818;9.088;2023-11-21T09:33:04;8.80;72.30
9167;DHT22;4618;48.818;9.088;2023-11-21T09:35:32;8.80;1.00
9167;DHT22;4618;48.818;9.088;2023-11-21T09:37:58;8.70;1.00
9167;DHT22;4618;48.818;9.088;2023-11-21T09:40:24;8.60;1.00
9167;DHT22;4618;48.818;9.088;2023-11-21T09:42:55;8.60;6.80
9167;DHT22;4618;48.818;9.088;2023-11-21T09:45:28;8.50;99.90
9167;DHT22;4618;48.818;9.088;2023-11-21T09:47:55;8.50;99.90
9167;DHT22;4618;48.818;9.088;2023-11-21T09:50:22;8.60;99.90
9167;DHT22;4618;48.818;9.088;2023-11-21T09:52:58;8.50;99.90
9167;DHT22;4618;48.818;9.088;2023-11-21T09:55:28;8.60;99.90
9167;DHT22;4618;48.818;9.088;2023-11-21T09:58:02;8.60;99.90
9167;DHT22;4618;48.818;9.088;2023-11-21T10:00:29;8.60;99.90
9167;DHT22;4618;48.818;9.088;2023-11-21T10:02:58;8.60;99.90
9167;DHT22;4618;48.818;9.088;2023-11-21T10:05:24;8.60;99.90
9167;DHT22;4618;48.818;9.088;2023-11-21T10:07:50;8.50;99.90
9167;DHT22;4618;48.818;9.088;2023-11-21T10:10:19;8.50;99.90
9167;DHT22;4618;48.818;9.088;2023-11-21T10:12:50;8.50;99.90
9167;DHT22;4618;48.818;9.088;2023-11-21T10:15:21;8.60;99.90
9167;DHT22;4618;48.818;9.088;2023-11-21T10:17:49;8.60;99.90
9167;DHT22;4618;48.818;9.088;2023-11-21T10:20:15;8.60;99.90
9167;DHT22;4618;48.818;9.088;2023-11-21T10:22:41;8.60;99.90
9167;DHT22;4618;48.818;9.088;2023-11-21T10:25:10;8.50;99.90
9167;DHT22;4618;48.818;9.088;2023-11-21T10:27:37;8.50;99.90
9167;DHT22;4618;48.818;9.088;2023-11-21T10:30:05;8.50;99.90
9167;DHT22;4618;48.818;9.088;2023-11-21T10:32:31;8.40;77.00
9167;DHT22;4618;48.818;9.088;2023-11-21T10:34:59;8.50;99.90
9167;DHT22;4618;48.818;9.088;2023-11-21T10:37:32;8.60;99.90
9167;DHT22;4618;48.818;9.088;2023-11-21T10:40:01;8.70;99.90
9167;DHT22;4618;48.818;9.088;2023-11-21T10:42:26;8.90;1.00
9167;DHT22;4618;48.818;9.088;2023-11-21T10:44:53;9.10;1.00
9167;DHT22;4618;48.818;9.088;2023-11-21T10:47:19;8.90;1.00
9167;DHT22;4618;48.818;9.088;2023-11-21T10:49:48;8.90;1.00
9167;DHT22;4618;48.818;9.088;2023-11-21T10:52:14;8.80;1.00
9167;DHT22;4618;48.818;9.088;2023-11-21T10:54:43;8.90;99.90
9167;DHT22;4618;48.818;9.088;2023-11-21T10:57:10;8.90;99.90
9167;DHT22;4618;48.818;9.088;2023-11-21T10:59:36;9.00;99.90
9167;DHT22;4618;48.818;9.088;2023-11-21T11:02:29;9.00;99.90
9167;DHT22;4618;48.818;9.088;2023-11-21T11:04:58;9.10;88.50
9167;DHT22;4618;48.818;9.088;2023-11-21T11:07:27;9.30;1.00
9167;DHT22;4618;48.818;9.088;2023-11-21T11:09:58;9.40;1.00
9167;DHT22;4618;48.818;9.088;2023-11-21T11:12:24;9.40;1.00
9167;DHT22;4618;48.818;9.088;2023-11-21T11:14:51;9.40;99.90
9167;DHT22;4618;48.818;9.088;2023-11-21T11:17:19;9.60;99.90
9167;DHT22;4618;48.818;9.088;2023-11-21T11:19:46;9.60;99.90
9167;DHT22;4618;48.818;9.088;2023-11-21T11:22:24;9.70;99.90
9167;DHT22;4618;48.818;9.088;2023-11-21T11:25:09;10.10;99.90
9167;DHT22;4618;48.818;9.088;2023-11-21T11:28:18;10.50;99.90
9167;DHT22;4618;48.818;9.088;2023-11-21T11:30:47;11.00;1.00
9167;DHT22;4618;48.818;9.088;2023-11-21T11:36:48;11.20;99.90
9167;DHT22;4618;48.818;9.088;2023-11-21T11:39:40;11.10;22.50
9167;DHT22;4618;48.818;9.088;2023-11-21T11:42:12;11.30;99.90
9167;DHT22;4618;48.818;9.088;2023-11-21T11:47:31;12.00;1.00
9167;DHT22;4618;48.818;9.088;2023-11-21T11:50:10;12.40;99.90
9167;DHT22;4618;48.818;9.088;2023-11-21T11:52:43;12.70;97.40
9167;DHT22;4618;48.818;9.088;2023-11-21T11:55:10;12.70;1.00
9167;DHT22;4618;48.818;9.088;2023-11-21T11:57:37;12.70;1.00
9167;DHT22;4618;48.818;9.088;2023-11-21T12:02:44;12.00;28.30
9167;DHT22;4618;48.818;9.088;2023-11-21T12:05:15;11.60;99.90
9167;DHT22;4618;48.818;9.088;2023-11-21T12:07:52;10.90;1.00
9167;DHT22;4618;48.818;9.088;2023-11-21T12:10:26;10.40;99.90
9167;DHT22;4618;48.818;9.088;2023-11-21T12:12:55;10.00;1.00
9167;DHT22;4618;48.818;9.088;2023-11-21T12:15:21;9.80;95.60
9167;DHT22;4618;48.818;9.088;2023-11-21T12:17:48;9.60;99.90
9167;DHT22;4618;48.818;9.088;2023-11-21T12:20:23;9.60;99.90
9167;DHT22;4618;48.818;9.088;2023-11-21T12:22:51;9.60;1.00
9167;DHT22;4618;48.818;9.088;2023-11-21T12:25:18;9.60;1.00
9167;DHT22;4618;48.818;9.088;2023-11-21T12:27:52;9.60;1.00
9167;DHT22;4618;48.818;9.088;2023-11-21T12:30:19;9.70;1.00
9167;DHT22;4618;48.818;9.088;2023-11-21T12:32:51;9.70;1.00
9167;DHT22;4618;48.818;9.088;2023-11-21T12:35:18;9.70;1.00
9167;DHT22;4618;48.818;9.088;2023-11-21T12:37:47;9.80;1.00
9167;DHT22;4618;48.818;9.088;2023-11-21T12:40:16;9.90;14.10
9167;DHT22;4618;48.818;9.088;2023-11-21T12:42:43;9.90;1.00
9167;DHT22;4618;48.818;9.088;2023-11-21T12:45:20;10.00;1.00
9167;DHT22;4618;48.818;9.088;2023-11-21T12:47:55;10.10;1.00
9167;DHT22;4618;48.818;9.088;2023-11-21T12:50:22;10.20;99.90
9167;DHT22;4618;48.818;9.088;2023-11-21T12:52:50;10.50;99.90
9167;DHT22;4618;48.818;9.088;2023-11-21T12:55:18;10.60;99.90
9167;DHT22;4618;48.818;9.088;2023-11-21T12:57:48;10.70;39.10
9167;DHT22;4618;48.818;9.088;2023-11-21T13:00:18;10.20;1.00
9167;DHT22;4618;48.818;9.088;2023-11-21T13:02:53;9.90;1.00
9167;DHT22;4618;48.818;9.088;2023-11-21T13:08:00;9.10;99.90
9167;DHT22;4618;48.818;9.088;2023-11-21T13:10:29;8.80;1.00
9167;DHT22;4618;48.818;9.088;2023-11-21T13:13:00;8.60;1.00
9167;DHT22;4618;48.818;9.088;2023-11-21T13:15:29;8.70;13.90
9167;DHT22;4618;48.818;9.088;2023-11-21T13:17:57;8.70;99.90
9167;DHT22;4618;48.818;9.088;2023-11-21T13:20:23;8.70;99.90
9167;DHT22;4618;48.818;9.088;2023-11-21T13:22:51;8.70;99.90
9167;DHT22;4618;48.818;9.088;2023-11-21T13:25:23;8.70;99.90
9167;DHT22;4618;48.818;9.088;2023-11-21T13:27:49;8.70;99.90
9167;DHT22;4618;48.818;9.088;2023-11-21T13:30:15;8.60;1.00
9167;DHT22;4618;48.818;9.088;2023-11-21T13:32:45;8.70;1.00
9167;DHT22;4618;48.818;9.088;2023-11-21T13:35:12;8.70;1.00
9167;DHT22;4618;48.818;9.088;2023-11-21T13:37:48;8.80;1.00
9167;DHT22;4618;48.818;9.088;2023-11-21T13:40:15;8.80;1.00
9167;DHT22;4618;48.818;9.088;2023-11-21T13:42:45;8.90;1.00
9167;DHT22;4618;48.818;9.088;2023-11-21T13:45:11;8.80;1.00
9167;DHT22;4618;48.818;9.088;2023-11-21T13:47:38;8.90;1.00
9167;DHT22;4618;48.818;9.088;2023-11-21T13:50:06;8.90;1.00
9167;DHT22;4618;48.818;9.088;2023-11-21T13:52:39;8.90;1.00
9167;DHT22;4618;48.818;9.088;2023-11-21T13:55:05;8.90;1.00
9167;DHT22;4618;48.818;9.088;2023-11-21T13:57:37;9.00;1.00
9167;DHT22;4618;48.818;9.088;2023-11-21T14:00:03;9.10;1.00
9167;DHT22;4618;48.818;9.088;2023-11-21T14:02:36;9.20;1.00
9167;DHT22;4618;48.818;9.088;2023-11-21T14:05:07;9.20;1.00
9167;DHT22;4618;48.818;9.088;2023-11-21T14:07:35;9.20;1.00
9167;DHT22;4618;48.818;9.088;2023-11-21T14:10:04;9.20;1.00
9167;DHT22;4618;48.818;9.088;2023-11-21T14:12:33;9.20;99.90
9167;DHT22;4618;48.818;9.088;2023-11-21T14:14:59;9.20;99.90
9167;DHT22;4618;48.818;9.088;2023-11-21T14:17:25;9.20;99.90
9167;DHT22;4618;48.818;9.088;2023-11-21T14:19:52;9.20;99.90
9167;DHT22;4618;48.818;9.088;2023-11-21T14:22:20;9.10;99.90
9167;DHT22;4618;48.818;9.088;2023-11-21T14:24:46;9.10;99.90
9167;DHT22;4618;48.818;9.088;2023-11-21T14:27:13;9.10;99.90
9167;DHT22;4618;48.818;9.088;2023-11-21T14:29:38;9.10;99.90
9167;DHT22;4618;48.818;9.088;2023-11-21T14:32:08;9.10;99.90
9167;DHT22;4618;48.818;9.088;2023-11-21T14:34:34;9.10;99.90
9167;DHT22;4618;48.818;9.088;2023-11-21T14:37:00;9.00;99.90
9167;DHT22;4618;48.818;9.088;2023-11-21T14:39:28;9.10;99.90
9167;DHT22;4618;48.818;9.088;2023-11-21T14:41:54;9.10;99.90
9167;DHT22;4618;48.818;9.088;2023-11-21T14:44:24;9.10;99.90
9167;DHT22;4618;48.818;9.088;2023-11-21T14:46:53;9.10;99.90
9167;DHT22;4618;48.818;9.088;2023-11-21T14:49:20;9.00;99.90
9167;DHT22;4618;48.818;9.088;2023-11-21T14:51:55;8.90;99.90
9167;DHT22;4618;48.818;9.088;2023-11-21T14:54:42;9.00;1.00
9167;DHT22;4618;48.818;9.088;2023-11-21T14:57:13;9.00;1.00
9167;DHT22;4618;48.818;9.088;2023-11-21T14:59:45;9.00;1.00
9167;DHT22;4618;48.818;9.088;2023-11-21T15:02:20;9.00;1.00
9167;DHT22;4618;48.818;9.088;2023-11-21T15:04:48;9.00;1.00
9167;DHT22;4618;48.818;9.088;2023-11-21T15:07:17;9.00;1.00
9167;DHT22;4618;48.818;9.088;2023-11-21T15:09:42;9.10;1.00
9167;DHT22;4618;48.818;9.088;2023-11-21T15:12:09;9.00;1.00
9167;DHT22;4618;48.818;9.088;2023-11-21T15:14:38;9.00;99.90
9167;DHT22;4618;48.818;9.088;2023-11-21T15:17:03;8.90;99.90
9167;DHT22;4618;48.818;9.088;2023-11-21T15:19:30;8.90;1.00
9167;DHT22;4618;48.818;9.088;2023-11-21T15:21:56;8.80;1.00
9167;DHT22;4618;48.818;9.088;2023-11-21T15:24:22;8.80;1.00
9167;DHT22;4618;48.818;9.088;2023-11-21T15:26:47;8.70;1.00
9167;DHT22;4618;48.818;9.088;2023-11-21T15:29:13;8.70;1.00
9167;DHT22;4618;48.818;9.088;2023-11-21T15:31:40;8.60;1.00
9167;DHT22;4618;48.818;9.088;2023-11-21T15:34:11;8.60;1.00
9167;DHT22;4618;48.818;9.088;2023-11-21T15:36:37;8.60;1.00
9167;DHT22;4618;48.818;9.088;2023-11-21T15:39:02;8.50;1.00
9167;DHT22;4618;48.818;9.088;2023-11-21T15:41:28;8.50;1.00
9167;DHT22;4618;48.818;9.088;2023-11-21T15:43:54;8.50;1.00
9167;DHT22;4618;48.818;9.088;2023-11-21T15:46:20;8.50;1.00
9167;DHT22;4618;48.818;9.088;2023-11-21T15:48:45;8.50;1.00
9167;DHT22;4618;48.818;9.088;2023-11-21T15:51:16;8.50;1.00
9167;DHT22;4618;48.818;9.088;2023-11-21T15:53:42;8.40;1.00
9167;DHT22;4618;48.818;9.088;2023-11-21T15:56:08;8.50;1.00
9167;DHT22;4618;48.818;9.088;2023-11-21T15:58:39;8.40;1.00
9167;DHT22;4618;48.818;9.088;2023-11-21T16:01:09;8.40;1.00
9167;DHT22;4618;48.818;9.088;2023-11-21T16:03:36;8.40;1.00
9167;DHT22;4618;48.818;9.088;2023-11-21T16:06:02;8.40;1.00
9167;DHT22;4618;48.818;9.088;2023-11-21T16:08:28;8.40;1.00
9167;DHT22;4618;48.818;9.088;2023-11-21T16:10:54;8.40;1.00
9167;DHT22;4618;48.818;9.088;2023-11-21T16:13:20;8.30;1.00
9167;DHT22;4618;48.818;9.088;2023-11-21T16:15:47;8.30;1.00
9167;DHT22;4618;48.818;9.088;2023-11-21T16:18:13;8.20;1.00
9167;DHT22;4618;48.818;9.088;2023-11-21T16:20:38;8.10;1.00
9167;DHT22;4618;48.818;9.088;2023-11-21T16:23:04;8.10;1.00
9167;DHT22;4618;48.818;9.088;2023-11-21T16:25:29;8.00;1.00
9167;DHT22;4618;48.818;9.088;2023-11-21T16:27:55;8.00;1.00
9167;DHT22;4618;48.818;9.088;2023-11-21T16:30:23;7.90;1.00
9167;DHT22;4618;48.818;9.088;2023-11-21T16:32:50;7.90;1.00
9167;DHT22;4618;48.818;9.088;2023-11-21T16:35:16;7.80;1.00
9167;DHT22;4618;48.818;9.088;2023-11-21T16:37:43;7.70;1.00